createdAt,value
2019-03-08T00:01:48.882Z,28.05
2019-03-08T00:04:15.173Z,28.00
2019-03-08T00:06:41.339Z,27.74
2019-03-08T00:09:09.014Z,28.70
2019-03-08T00:11:35.491Z,29.16
2019-03-08T00:14:01.752Z,29.79
2019-03-08T00:16:28.110Z,28.32
2019-03-08T00:18:54.415Z,27.88
2019-03-08T00:21:20.571Z,28.52
2019-03-08T00:23:46.732Z,27.82
2019-03-08T00:26:12.925Z,27.86
2019-03-08T00:28:39.088Z,27.71
2019-03-08T00:31:05.251Z,28.15
2019-03-08T00:33:31.427Z,28.31
2019-03-08T00:35:57.695Z,28.47
2019-03-08T00:38:25.156Z,28.37
2019-03-08T00:40:51.356Z,28.08
2019-03-08T00:43:17.522Z,28.94
2019-03-08T00:45:43.787Z,28.57
2019-03-08T00:48:09.972Z,28.01
2019-03-08T00:50:36.507Z,28.18
2019-03-08T00:53:02.980Z,28.41
2019-03-08T00:55:29.170Z,28.69
2019-03-08T00:57:55.540Z,29.52
2019-03-08T01:00:21.691Z,28.61
2019-03-08T01:02:47.885Z,28.97
2019-03-08T01:05:16.063Z,28.54
2019-03-08T01:07:42.215Z,28.85
2019-03-08T01:10:11.607Z,28.75
2019-03-08T01:12:37.773Z,28.58
2019-03-08T01:15:15.579Z,29.03
2019-03-08T01:17:41.741Z,30.20
2019-03-08T01:20:10.628Z,29.87
2019-03-08T01:22:36.821Z,29.71
2019-03-08T01:25:05.278Z,29.65
2019-03-08T01:27:31.440Z,31.43
2019-03-08T01:29:57.736Z,30.75
2019-03-08T01:32:24.005Z,30.64
2019-03-08T01:34:50.266Z,31.03
2019-03-08T01:37:16.448Z,31.08
2019-03-08T01:39:42.714Z,32.38
2019-03-08T01:42:08.979Z,32.50
2019-03-08T01:44:35.172Z,32.35
2019-03-08T01:47:01.534Z,31.66
2019-03-08T01:49:27.704Z,31.84
2019-03-08T01:51:53.887Z,29.47
2019-03-08T01:54:20.053Z,29.03
2019-03-08T01:56:46.326Z,28.85
2019-03-08T01:59:12.518Z,28.39
2019-03-08T02:01:38.670Z,30.19
2019-03-08T02:04:05.141Z,30.26
2019-03-08T02:06:31.331Z,29.58
2019-03-08T02:08:57.482Z,29.88
2019-03-08T02:11:23.642Z,31.03
2019-03-08T02:13:49.938Z,30.90
2019-03-08T02:16:16.094Z,31.64
2019-03-08T02:18:42.361Z,30.97
2019-03-08T02:21:08.661Z,31.14
2019-03-08T02:23:34.809Z,30.28
2019-03-08T02:26:00.970Z,30.98
2019-03-08T02:28:27.171Z,31.13
2019-03-08T02:30:53.423Z,30.82
2019-03-08T02:33:19.572Z,32.32
2019-03-08T02:35:45.866Z,31.39
2019-03-08T02:38:12.055Z,32.41
2019-03-08T02:40:38.342Z,30.42
2019-03-08T02:43:09.364Z,30.30
2019-03-08T02:45:35.498Z,31.40
2019-03-08T02:48:01.657Z,30.57
2019-03-08T02:50:27.847Z,29.87
2019-03-08T02:52:54.009Z,30.35
2019-03-08T02:55:20.163Z,29.68
2019-03-08T02:57:46.565Z,30.70
2019-03-08T03:00:17.677Z,31.29
2019-03-08T03:02:43.959Z,31.38
2019-03-08T03:05:10.150Z,30.95
2019-03-08T03:07:36.422Z,30.77
2019-03-08T03:10:04.586Z,30.01
2019-03-08T03:12:30.770Z,30.57
2019-03-08T03:14:57.032Z,29.87
2019-03-08T03:17:23.300Z,29.90
2019-03-08T03:19:49.593Z,29.59
2019-03-08T03:22:15.745Z,30.07
2019-03-08T03:24:41.901Z,30.39
2019-03-08T03:27:08.097Z,30.46
2019-03-08T03:29:34.248Z,31.34
2019-03-08T03:32:00.602Z,29.96
2019-03-08T03:34:26.792Z,30.07
2019-03-08T03:36:52.960Z,31.05
2019-03-08T03:39:19.204Z,31.25
2019-03-08T03:41:45.464Z,30.31
2019-03-08T03:44:11.626Z,29.69
2019-03-08T03:46:37.779Z,30.64
2019-03-08T03:49:03.971Z,29.87
2019-03-08T03:51:30.853Z,29.65
2019-03-08T03:53:57.108Z,30.46
2019-03-08T03:56:23.293Z,30.07
2019-03-08T03:58:49.452Z,30.57
2019-03-08T04:01:23.582Z,30.09
2019-03-08T04:03:49.773Z,30.08
2019-03-08T04:06:16.441Z,30.49
2019-03-08T04:08:42.605Z,31.34
2019-03-08T04:11:08.800Z,30.11
2019-03-08T04:13:34.956Z,29.50
2019-03-08T04:16:01.112Z,30.06
2019-03-08T04:18:27.304Z,29.06
2019-03-08T04:20:53.467Z,29.17
2019-03-08T04:23:19.613Z,29.51
2019-03-08T04:25:45.913Z,29.56
2019-03-08T04:28:12.074Z,29.60
2019-03-08T04:30:38.223Z,29.66
2019-03-08T04:33:04.414Z,29.99
2019-03-08T04:35:30.712Z,30.63
2019-03-08T04:37:57.233Z,32.01
2019-03-08T04:40:23.454Z,31.84
2019-03-08T04:42:50.476Z,31.17
2019-03-08T04:45:16.631Z,31.06
2019-03-08T04:47:42.824Z,32.09
2019-03-08T04:50:10.583Z,31.96
2019-03-08T04:52:36.762Z,32.19
2019-03-08T04:55:13.753Z,31.96
2019-03-08T04:57:40.008Z,32.67
2019-03-08T05:00:12.096Z,32.86
2019-03-08T05:02:38.553Z,32.53
2019-03-08T05:05:04.983Z,32.48
2019-03-08T05:07:31.279Z,31.96
2019-03-08T05:09:57.468Z,31.85
2019-03-08T05:12:23.619Z,32.95
2019-03-08T05:14:49.782Z,32.38
2019-03-08T05:17:15.964Z,32.61
2019-03-08T05:19:42.222Z,31.81
2019-03-08T05:22:08.428Z,30.60
2019-03-08T05:24:34.630Z,28.32
2019-03-08T05:27:00.767Z,26.29
2019-03-08T05:29:26.925Z,25.57
2019-03-08T05:31:53.110Z,24.57
2019-03-08T05:34:19.662Z,24.55
2019-03-08T05:36:45.823Z,24.15
2019-03-08T05:39:12.024Z,22.91
2019-03-08T05:41:38.284Z,22.80
2019-03-08T05:44:04.564Z,22.45
2019-03-08T05:46:30.748Z,21.90
2019-03-08T05:48:56.898Z,22.06
2019-03-08T05:51:23.054Z,22.77
2019-03-08T05:53:49.441Z,22.20
2019-03-08T05:56:15.602Z,20.68
2019-03-08T05:58:41.761Z,19.53
2019-03-08T06:01:08.291Z,18.76
2019-03-08T06:03:34.439Z,19.27
2019-03-08T06:06:00.596Z,19.12
2019-03-08T06:08:26.801Z,19.05
2019-03-08T06:10:52.970Z,19.04
2019-03-08T06:13:19.322Z,19.88
2019-03-08T06:15:45.512Z,21.23
2019-03-08T06:18:11.676Z,21.03
2019-03-08T06:20:37.937Z,20.81
2019-03-08T06:23:04.709Z,22.56
2019-03-08T06:25:31.122Z,23.57
2019-03-08T06:27:57.279Z,24.04
2019-03-08T06:30:23.577Z,23.87
2019-03-08T06:32:50.133Z,25.78
2019-03-08T06:35:16.298Z,26.03
2019-03-08T06:37:42.470Z,26.27
2019-03-08T06:40:12.744Z,25.83
2019-03-08T06:42:38.902Z,25.43
2019-03-08T06:45:11.238Z,25.21
2019-03-08T06:47:37.504Z,25.00
2019-03-08T06:50:07.077Z,25.69
2019-03-08T06:52:33.525Z,26.14
2019-03-08T06:54:59.681Z,25.90
2019-03-08T06:57:25.846Z,25.39
2019-03-08T06:59:53.936Z,26.09
2019-03-08T07:02:20.809Z,25.64
2019-03-08T07:04:46.964Z,25.61
2019-03-08T07:07:13.598Z,25.58
2019-03-08T07:09:39.755Z,24.74
2019-03-08T07:12:06.013Z,24.69
2019-03-08T07:14:32.205Z,24.63
2019-03-08T07:16:58.375Z,24.36
2019-03-08T07:19:24.627Z,24.22
2019-03-08T07:21:55.635Z,24.33
2019-03-08T07:24:39.240Z,23.90
2019-03-08T07:27:13.345Z,24.35
2019-03-08T07:29:41.399Z,24.97
2019-03-08T07:32:25.735Z,24.63
2019-03-08T07:34:59.465Z,24.11
2019-03-08T07:37:44.143Z,23.85
2019-03-08T07:40:21.318Z,23.60
2019-03-08T07:45:44.282Z,23.70
2019-03-08T07:48:30.828Z,25.46
2019-03-08T07:51:16.835Z,24.02
2019-03-08T07:53:50.494Z,24.59
2019-03-08T07:56:30.266Z,23.33
2019-03-08T07:59:04.164Z,22.82
2019-03-08T08:01:44.081Z,22.51
2019-03-08T08:04:18.017Z,22.40
2019-03-08T08:06:57.699Z,22.06
2019-03-08T08:09:25.788Z,22.19
2019-03-08T08:11:57.792Z,21.99
2019-03-08T08:14:39.256Z,22.46
2019-03-08T08:17:18.000Z,23.12
2019-03-08T08:19:48.896Z,23.02
2019-03-08T08:22:23.695Z,23.84
2019-03-08T08:24:51.783Z,22.64
2019-03-08T08:27:25.377Z,23.71
2019-03-08T08:30:02.220Z,22.35
2019-03-08T08:32:42.024Z,21.26
2019-03-08T08:35:19.236Z,20.47
2019-03-08T08:37:49.840Z,20.10
2019-03-08T08:40:17.895Z,21.80
2019-03-08T08:42:48.756Z,21.13
2019-03-08T08:45:22.908Z,21.04
2019-03-08T08:47:51.244Z,21.77
2019-03-08T08:50:19.296Z,21.16
2019-03-08T08:52:53.369Z,21.65
2019-03-08T08:58:29.758Z,21.82
2019-03-08T09:01:03.633Z,22.24
2019-03-08T09:03:48.488Z,21.34
2019-03-08T09:06:32.825Z,20.56
2019-03-08T09:09:00.924Z,20.37
2019-03-08T09:11:32.008Z,20.12
2019-03-08T09:14:00.073Z,19.58
2019-03-08T09:16:28.158Z,20.71
2019-03-08T09:22:11.022Z,18.67
2019-03-08T09:24:39.084Z,17.51
2019-03-08T09:27:12.941Z,18.04
2019-03-08T09:29:43.775Z,18.17
2019-03-08T09:32:12.150Z,17.15
2019-03-08T09:34:40.461Z,17.40
2019-03-08T09:40:11.210Z,17.22
2019-03-08T09:45:49.290Z,18.06
2019-03-08T09:48:29.017Z,17.93
2019-03-08T09:50:59.637Z,18.76
2019-03-08T09:53:40.046Z,18.75
2019-03-08T09:56:11.906Z,18.32
2019-03-08T09:58:46.620Z,18.31
2019-03-08T10:01:16.824Z,17.14
2019-03-08T10:03:46.470Z,17.36
2019-03-08T10:11:51.826Z,16.14
2019-03-08T10:14:19.896Z,14.96
2019-03-08T10:17:03.074Z,15.09
2019-03-08T10:19:31.144Z,15.73
2019-03-08T10:22:11.325Z,15.58
2019-03-08T10:24:57.244Z,15.77
2019-03-08T10:27:37.827Z,15.42
2019-03-08T10:30:01.010Z,16.15
2019-03-08T10:32:37.518Z,16.46
2019-03-08T10:35:23.727Z,16.37
2019-03-08T10:37:50.680Z,16.71
2019-03-08T10:40:18.742Z,15.79
2019-03-08T10:43:04.788Z,15.98
2019-03-08T10:45:35.711Z,16.49
2019-03-08T10:48:03.771Z,16.61
2019-03-08T10:50:31.862Z,16.10
2019-03-08T10:52:59.938Z,15.81
2019-03-08T10:55:28.007Z,15.42
2019-03-08T11:03:40.662Z,13.62
2019-03-08T11:06:11.733Z,13.09
2019-03-08T11:08:51.906Z,13.54
2019-03-08T11:11:37.915Z,14.54
2019-03-08T11:14:22.586Z,15.65
2019-03-08T11:17:07.050Z,14.75
2019-03-08T11:19:51.428Z,15.19
2019-03-08T11:22:19.504Z,13.75
2019-03-08T11:24:50.101Z,13.75
2019-03-08T11:27:18.219Z,14.67
2019-03-08T11:29:46.300Z,14.67
2019-03-08T11:32:26.402Z,14.57
2019-03-08T11:35:09.801Z,13.83
2019-03-08T11:37:52.695Z,13.17
2019-03-08T11:40:21.159Z,13.08
2019-03-08T11:43:01.108Z,13.20
2019-03-08T11:51:14.694Z,12.45
2019-03-08T11:56:32.501Z,13.07
2019-03-08T11:59:17.210Z,13.07
2019-03-08T12:02:01.559Z,12.38
2019-03-08T12:09:55.914Z,11.33
2019-03-08T12:12:26.500Z,11.27
2019-03-08T12:14:57.943Z,12.05
2019-03-08T12:17:31.832Z,12.33
2019-03-08T12:25:36.284Z,12.70
2019-03-08T12:28:19.156Z,12.84
2019-03-08T12:33:33.730Z,11.54
2019-03-08T12:36:18.208Z,11.83
2019-03-08T12:38:48.794Z,11.86
2019-03-08T12:41:19.370Z,11.79
2019-03-08T12:43:47.462Z,11.08
2019-03-08T12:51:45.453Z,11.73
2019-03-08T12:54:16.689Z,11.95
2019-03-08T12:59:47.529Z,12.01
2019-03-08T13:02:18.214Z,11.70
2019-03-08T13:04:49.006Z,12.51
2019-03-08T13:07:28.844Z,12.72
2019-03-08T13:09:56.909Z,12.88
2019-03-08T13:12:23.077Z,12.64
2019-03-08T13:14:49.271Z,12.36
2019-03-08T13:17:16.029Z,13.01
2019-03-08T13:19:42.195Z,12.67
2019-03-08T13:22:08.392Z,12.66
2019-03-08T13:24:34.563Z,12.58
2019-03-08T13:27:00.724Z,12.71
2019-03-08T13:29:26.908Z,13.06
2019-03-08T13:31:53.080Z,13.46
2019-03-08T13:34:19.333Z,13.39
2019-03-08T13:36:45.755Z,13.08
2019-03-08T13:39:11.928Z,13.17
2019-03-08T13:41:38.092Z,13.27
2019-03-08T13:44:04.276Z,13.57
2019-03-08T13:46:30.444Z,14.23
2019-03-08T13:48:56.604Z,13.66
2019-03-08T13:51:22.803Z,14.84
2019-03-08T13:53:48.964Z,14.36
2019-03-08T13:56:15.139Z,14.06
2019-03-08T13:58:41.335Z,13.69
2019-03-08T14:01:07.499Z,13.87
2019-03-08T14:03:33.660Z,14.18
2019-03-08T14:05:59.844Z,14.39
2019-03-08T14:08:26.007Z,14.33
2019-03-08T14:10:52.171Z,14.46
2019-03-08T14:13:18.586Z,14.53
2019-03-08T14:15:44.738Z,13.94
2019-03-08T14:18:10.895Z,14.71
2019-03-08T14:20:37.094Z,14.49
2019-03-08T14:23:03.257Z,14.48
2019-03-08T14:25:29.420Z,14.61
2019-03-08T14:27:55.606Z,14.51
2019-03-08T14:30:26.981Z,13.98
2019-03-08T14:32:53.309Z,13.93
2019-03-08T14:35:19.904Z,14.23
2019-03-08T14:37:46.059Z,14.35
2019-03-08T14:43:08.682Z,14.25
2019-03-08T14:45:40.405Z,14.36
2019-03-08T14:48:05.968Z,14.62
2019-03-08T14:50:35.452Z,14.46
2019-03-08T14:53:00.983Z,14.74
2019-03-08T14:55:27.342Z,14.43
2019-03-08T14:57:55.361Z,14.47
2019-03-08T15:00:25.346Z,15.14
2019-03-08T15:02:49.967Z,15.42
2019-03-08T15:05:19.214Z,15.75
2019-03-08T15:07:44.319Z,15.76
2019-03-08T15:10:15.521Z,15.17
2019-03-08T15:12:49.049Z,14.98
2019-03-08T15:15:11.783Z,15.04
2019-03-08T15:17:39.063Z,15.00
2019-03-08T15:20:18.595Z,14.98
2019-03-08T15:22:45.261Z,14.82
2019-03-08T15:25:14.156Z,14.69
2019-03-08T15:27:40.533Z,14.71
2019-03-08T15:30:12.855Z,14.69
2019-03-08T15:32:39.113Z,14.64
2019-03-08T15:35:07.717Z,14.92
2019-03-08T15:37:43.656Z,15.43
2019-03-08T15:40:03.264Z,16.41
2019-03-08T15:42:29.568Z,16.50
2019-03-08T15:44:55.721Z,17.08
2019-03-08T15:47:23.821Z,17.38
2019-03-08T15:49:49.967Z,17.30
2019-03-08T15:52:16.327Z,17.52
2019-03-08T15:54:42.866Z,17.73
2019-03-08T15:57:09.075Z,18.19
2019-03-08T15:59:35.260Z,18.07
2019-03-08T16:02:01.943Z,18.10
2019-03-08T16:04:29.603Z,18.16
2019-03-08T16:06:55.880Z,18.78
2019-03-08T16:09:22.073Z,18.45
2019-03-08T16:11:48.272Z,19.35
2019-03-08T16:14:14.421Z,18.91
2019-03-08T16:16:40.579Z,18.91
2019-03-08T16:19:06.781Z,19.01
2019-03-08T16:21:33.044Z,18.84
2019-03-08T16:23:59.505Z,19.09
2019-03-08T16:26:26.412Z,19.66
2019-03-08T16:28:52.766Z,19.70
2019-03-08T16:31:30.499Z,19.57
2019-03-08T16:34:01.389Z,19.56
2019-03-08T16:39:09.370Z,19.76
2019-03-08T16:41:53.827Z,19.83
2019-03-08T16:44:27.583Z,20.63
2019-03-08T16:46:55.582Z,20.70
2019-03-08T16:49:23.820Z,21.25
2019-03-08T16:51:51.886Z,21.46
2019-03-08T16:54:22.519Z,21.84
2019-03-08T16:59:34.153Z,22.88
2019-03-08T17:02:06.273Z,22.97
2019-03-08T17:04:34.370Z,22.76
2019-03-08T17:07:19.322Z,23.55
2019-03-08T17:09:47.419Z,23.87
2019-03-08T17:12:15.481Z,23.66
2019-03-08T17:15:00.342Z,23.78
2019-03-08T17:17:43.581Z,23.97
2019-03-08T17:20:11.681Z,23.59
2019-03-08T17:22:40.621Z,23.41
2019-03-08T17:25:09.101Z,23.72
2019-03-08T17:27:40.022Z,23.50
2019-03-08T17:30:11.703Z,23.24
2019-03-08T17:32:45.633Z,23.34
2019-03-08T17:35:13.699Z,23.04
2019-03-08T17:37:50.494Z,23.06
2019-03-08T17:40:18.564Z,23.29
2019-03-08T17:42:46.630Z,23.47
2019-03-08T17:45:32.853Z,24.45
2019-03-08T17:48:12.799Z,24.10
2019-03-08T17:50:43.660Z,23.16
2019-03-08T17:53:11.718Z,22.95
2019-03-08T17:55:45.750Z,23.04
2019-03-08T18:01:01.100Z,22.61
2019-03-08T18:03:34.913Z,23.14
2019-03-08T18:06:03.024Z,23.60
2019-03-08T18:08:31.088Z,24.08
2019-03-08T18:10:59.146Z,23.17
2019-03-08T18:13:27.240Z,23.31
2019-03-08T18:16:04.206Z,22.51
2019-03-08T18:18:48.830Z,23.29
2019-03-08T18:21:16.890Z,23.46
2019-03-08T18:23:59.827Z,23.55
2019-03-08T18:26:27.882Z,24.44
2019-03-08T18:28:55.946Z,24.99
2019-03-08T18:31:24.028Z,24.36
2019-03-08T18:33:52.091Z,25.01
2019-03-08T18:36:20.183Z,24.47
2019-03-08T18:39:06.175Z,24.86
2019-03-08T18:41:34.248Z,25.04
2019-03-08T18:44:02.298Z,25.34
2019-03-08T18:46:36.093Z,25.60
2019-03-08T18:49:20.470Z,24.34
2019-03-08T18:51:48.558Z,24.77
2019-03-08T18:54:25.650Z,25.13
2019-03-08T18:56:57.184Z,25.15
2019-03-08T18:59:30.783Z,25.12
2019-03-08T19:02:13.901Z,25.06
2019-03-08T19:04:44.743Z,24.58
2019-03-08T19:07:18.619Z,24.41
2019-03-08T19:09:58.475Z,24.50
2019-03-08T19:12:26.579Z,24.68
2019-03-08T19:14:54.649Z,24.67
2019-03-08T19:17:25.472Z,24.54
2019-03-08T19:19:53.580Z,24.51
2019-03-08T19:22:26.488Z,24.96
2019-03-08T19:25:07.925Z,24.26
2019-03-08T19:27:44.772Z,24.07
2019-03-08T19:30:23.210Z,24.41
2019-03-08T19:35:50.641Z,23.68
2019-03-08T19:38:27.443Z,23.78
2019-03-08T19:41:12.224Z,23.82
2019-03-08T19:43:46.380Z,24.43
2019-03-08T19:46:14.441Z,25.08
2019-03-08T19:48:57.603Z,25.56
2019-03-08T19:51:37.412Z,25.09
2019-03-08T19:54:11.323Z,25.83
2019-03-08T19:56:44.937Z,25.52
2019-03-08T19:59:21.884Z,24.96
2019-03-08T20:01:49.952Z,24.57
2019-03-08T20:04:18.016Z,24.58
2019-03-08T20:07:02.933Z,24.87
2019-03-08T20:09:30.997Z,25.83
2019-03-08T20:12:01.828Z,26.35
2019-03-08T20:14:44.740Z,26.57
2019-03-08T20:17:31.140Z,25.97
2019-03-08T20:20:17.258Z,26.19
2019-03-08T20:23:01.665Z,25.80
2019-03-08T20:25:46.125Z,25.98
2019-03-08T20:28:28.954Z,26.18
2019-03-08T20:31:09.187Z,26.56
2019-03-08T20:33:53.833Z,26.94
2019-03-08T20:36:28.261Z,27.33
2019-03-08T20:38:56.326Z,26.47
2019-03-08T20:41:24.398Z,26.95
2019-03-08T20:43:55.016Z,27.07
2019-03-08T20:46:28.855Z,26.77
2019-03-08T20:48:55.117Z,26.97
2019-03-08T20:51:21.313Z,25.92
2019-03-08T20:53:47.465Z,25.69
2019-03-08T20:56:13.624Z,26.15
2019-03-08T20:58:39.818Z,26.06
2019-03-08T21:01:05.970Z,26.44
2019-03-08T21:03:32.152Z,26.49
2019-03-08T21:05:58.456Z,26.80
2019-03-08T21:08:24.595Z,26.08
2019-03-08T21:10:50.872Z,26.38
2019-03-08T21:13:17.174Z,26.28
2019-03-08T21:15:43.330Z,26.87
2019-03-08T21:18:09.498Z,26.52
2019-03-08T21:20:35.705Z,26.55
2019-03-08T21:23:01.964Z,26.95
2019-03-08T21:25:28.115Z,27.03
2019-03-08T21:27:54.315Z,27.48
2019-03-08T21:30:20.469Z,27.13
2019-03-08T21:32:46.633Z,26.81
2019-03-08T21:35:12.875Z,26.81
2019-03-08T21:37:39.031Z,27.07
2019-03-08T21:40:07.284Z,26.77
2019-03-08T21:42:33.472Z,26.53
2019-03-08T21:44:59.631Z,26.68
2019-03-08T21:47:25.797Z,26.15
2019-03-08T21:49:51.981Z,26.60
2019-03-08T21:52:18.146Z,26.68
2019-03-08T21:54:44.511Z,26.68
2019-03-08T21:57:10.767Z,26.64
2019-03-08T21:59:36.917Z,26.85
2019-03-08T22:02:04.086Z,26.56
2019-03-08T22:04:32.323Z,26.72
2019-03-08T22:06:58.483Z,26.67
2019-03-08T22:09:26.552Z,26.70
2019-03-08T22:11:52.857Z,27.50
2019-03-08T22:14:19.126Z,28.10
2019-03-08T22:16:45.276Z,28.09
2019-03-08T22:19:11.473Z,27.80
2019-03-08T22:21:37.636Z,27.89
2019-03-08T22:24:12.847Z,28.14
2019-03-08T22:26:31.996Z,28.24
2019-03-08T22:28:58.254Z,28.31
2019-03-08T22:31:24.406Z,28.54
2019-03-08T22:33:50.705Z,28.85
2019-03-08T22:36:16.855Z,28.98
2019-03-08T22:38:43.121Z,29.18
2019-03-08T22:41:09.315Z,29.09
2019-03-08T22:43:35.471Z,29.13
2019-03-08T22:46:01.629Z,29.23
2019-03-08T22:48:27.828Z,29.28
2019-03-08T22:50:53.991Z,29.27
2019-03-08T22:53:20.158Z,29.22
2019-03-08T22:55:46.358Z,29.30
2019-03-08T22:58:12.507Z,29.50
2019-03-08T23:00:58.550Z,29.41
2019-03-08T23:03:24.843Z,29.48
2019-03-08T23:05:51.167Z,30.21
2019-03-08T23:08:17.358Z,31.47
2019-03-08T23:10:44.123Z,30.65
2019-03-08T23:13:10.386Z,29.70
2019-03-08T23:15:36.593Z,29.30
2019-03-08T23:18:02.765Z,29.08
2019-03-08T23:20:28.920Z,29.02
2019-03-08T23:22:55.115Z,29.85
2019-03-08T23:25:21.281Z,29.85
2019-03-08T23:27:49.346Z,29.28
2019-03-08T23:30:17.434Z,28.24
2019-03-08T23:32:44.803Z,28.48
2019-03-08T23:35:11.066Z,29.51
2019-03-08T23:37:37.272Z,30.14
2019-03-08T23:40:05.034Z,29.05
2019-03-08T23:42:31.208Z,28.98
2019-03-08T23:44:57.407Z,28.55
2019-03-08T23:47:23.687Z,28.57
2019-03-08T23:49:49.834Z,28.62
2019-03-08T23:52:16.023Z,28.57
2019-03-08T23:54:42.286Z,28.61
2019-03-08T23:57:08.739Z,28.70
2019-03-08T23:59:34.928Z,30.10
